.
WxDataArchive / Data Records for 2008-08-19
2008-08-18 August 2008 2008-08-20

Data Records for Tuesday, 19 August 2008

Time	Temp	Chill	HIndex	Humid	Dewpt	 Wind 	HiWind	WindDir	Rain 	Barom 
-----	----	-----	------	-----	-----	------	------	-------	-----	----- 
00:00	67.6	67.6	67.6	84	62.6	0	0	---	0.00	29.948 
00:05	67.4	67.4	67.4	84	62.4	0	0	---	0.00	29.952 
00:10	67.3	67.3	67.3	85	62.6	0	0	---	0.00	29.952 
00:15	67.1	67.1	67.1	85	62.4	0	0	---	0.00	29.953 
00:20	66.9	66.9	66.9	86	62.6	0	0	---	0.00	29.954 
00:25	66.9	66.9	66.9	86	62.6	0	0	---	0.00	29.952 
00:30	66.8	66.8	66.8	86	62.5	0	0	---	0.00	29.952 
00:35	66.6	66.6	66.6	86	62.3	0	0	---	0.00	29.951 
00:40	66.4	66.4	66.4	86	62.1	0	0	---	0.00	29.951 
00:45	66.3	66.3	66.3	87	62.3	0	0	---	0.00	29.951 
00:50	66.1	66.1	66.1	87	62.1	0	0	---	0.00	29.953 
00:55	66.0	66.0	66.0	88	62.3	0	0	---	0.00	29.953 
01:00	66.0	66.0	66.0	88	62.3	0	0	---	0.00	29.954 
01:05	65.8	65.8	65.8	88	62.1	0	0	---	0.00	29.955 
01:10	65.6	65.6	65.6	89	62.3	0	0	---	0.00	29.955 
01:15	65.5	65.5	65.5	89	62.2	0	0	---	0.00	29.956 
01:20	65.5	65.5	65.5	89	62.2	0	0	---	0.00	29.956 
01:25	65.3	65.3	65.3	89	62.0	0	0	---	0.00	29.956 
01:30	65.2	65.2	65.2	90	62.2	0	0	---	0.00	29.957 
01:35	65.0	65.0	65.0	90	62.0	0	0	---	0.00	29.958 
01:40	65.0	65.0	65.0	90	62.0	0	0	---	0.00	29.956 
01:45	64.8	64.8	64.8	90	61.8	0	0	---	0.00	29.954 
01:50	64.7	64.7	64.7	90	61.7	0	0	---	0.00	29.955 
01:55	64.5	64.5	64.5	90	61.5	0	0	---	0.00	29.952 
02:00	64.3	64.3	64.3	90	61.3	0	0	---	0.00	29.951 
02:05	64.3	64.3	64.3	91	61.6	0	0	---	0.00	29.948 
02:10	64.2	64.2	64.2	91	61.5	0	0	---	0.00	29.948 
02:15	64.2	64.2	64.2	92	61.8	0	0	---	0.00	29.948 
02:20	64.0	64.0	64.0	92	61.6	0	0	---	0.00	29.947 
02:25	63.9	63.9	63.9	92	61.5	0	0	---	0.00	29.947 
02:30	63.7	63.7	63.7	92	61.3	0	0	---	0.00	29.946 
02:35	63.5	63.5	63.5	92	61.1	0	0	---	0.00	29.947 
02:40	63.5	63.5	63.5	92	61.1	0	0	---	0.00	29.946 
02:45	63.4	63.4	63.4	92	61.0	0	0	---	0.00	29.948 
02:50	63.4	63.4	63.4	92	61.0	0	0	---	0.00	29.949 
02:55	63.2	63.2	63.2	93	61.1	0	0	---	0.00	29.949 
03:00	63.2	63.2	63.2	93	61.1	0	0	---	0.00	29.949 
03:05	63.2	63.2	63.2	93	61.1	0	0	---	0.00	29.948 
03:10	63.1	63.1	63.1	93	61.0	0	0	---	0.00	29.949 
03:15	62.9	62.9	62.9	93	60.8	0	0	---	0.00	29.949 
03:20	62.9	62.9	62.9	93	60.8	0	0	---	0.00	29.949 
03:25	62.9	62.9	62.9	94	61.1	0	0	---	0.00	29.950 
03:30	62.7	62.7	62.7	94	60.9	0	0	---	0.00	29.950 
03:35	62.7	62.7	62.7	94	60.9	0	0	---	0.00	29.953 
03:40	62.7	62.7	62.7	94	60.9	0	0	---	0.00	29.957 
03:45	62.6	62.6	62.6	94	60.8	0	0	---	0.00	29.954 
03:50	62.6	62.6	62.6	94	60.8	0	0	---	0.00	29.955 
03:55	62.4	62.4	62.4	94	60.6	0	0	---	0.00	29.957 
04:00	62.4	62.4	62.4	94	60.6	0	0	---	0.00	29.957 
04:05	62.4	62.4	62.4	94	60.6	0	0	---	0.00	29.961 
04:10	62.3	62.3	62.3	94	60.5	0	0	---	0.00	29.960 
04:15	62.3	62.3	62.3	94	60.5	0	0	---	0.00	29.962 
04:20	62.1	62.1	62.1	94	60.3	0	0	---	0.00	29.963 
04:25	62.1	62.1	62.1	94	60.3	0	0	---	0.00	29.965 
04:30	62.0	62.0	62.0	94	60.2	0	0	---	0.00	29.965 
04:35	62.0	62.0	62.0	95	60.5	0	0	---	0.00	29.965 
04:40	62.0	62.0	62.0	94	60.2	0	0	---	0.00	29.967 
04:45	62.0	62.0	62.0	95	60.5	0	0	---	0.00	29.967 
04:50	62.0	62.0	62.0	95	60.5	0	0	---	0.00	29.968 
04:55	62.1	62.1	62.1	95	60.6	0	0	---	0.00	29.972 
05:00	62.3	62.3	62.3	95	60.8	0	0	---	0.00	29.975 
05:05	62.3	62.3	62.3	95	60.8	0	0	---	0.00	29.976 
05:10	62.4	62.4	62.4	95	60.9	0	0	---	0.00	29.976 
05:15	62.4	62.4	62.4	95	60.9	0	0	---	0.00	29.974 
05:20	62.4	62.4	62.4	95	60.9	0	0	---	0.00	29.974 
05:25	62.3	62.3	62.3	95	60.8	0	0	---	0.00	29.975 
05:30	62.1	62.1	62.1	95	60.6	0	0	---	0.00	29.976 
05:35	62.3	62.3	62.3	95	60.8	0	0	---	0.00	29.978 
05:40	62.1	62.1	62.1	95	60.6	0	0	---	0.00	29.978 
05:45	62.1	62.1	62.1	95	60.6	0	0	---	0.00	29.979 
05:50	62.0	62.0	62.0	95	60.5	0	0	---	0.00	29.981 
05:55	61.8	61.8	61.8	95	60.3	0	0	---	0.00	29.982 
06:00	61.6	61.6	61.6	95	60.2	0	0	---	0.00	29.984 
06:05	61.6	61.6	61.6	95	60.2	0	0	---	0.00	29.986 
06:10	61.5	61.5	61.5	95	60.1	0	0	---	0.00	29.990 
06:15	61.3	61.3	61.3	95	59.9	0	0	---	0.00	29.997 
06:20	61.3	61.3	61.3	95	59.9	0	0	---	0.00	29.999 
06:25	61.3	61.3	61.3	95	59.9	0	0	---	0.00	29.999 
06:30	61.3	61.3	61.3	95	59.9	0	0	---	0.00	30.001 
06:35	61.5	61.5	61.5	96	60.3	0	0	---	0.00	30.002 
06:40	61.8	61.8	61.8	96	60.6	0	0	---	0.00	29.999 
06:45	62.1	62.1	62.1	96	60.9	0	0	---	0.00	29.999 
06:50	62.4	62.4	62.4	96	61.2	0	0	---	0.00	30.001 
06:55	62.9	62.9	62.9	96	61.7	0	0	---	0.00	30.002 
07:00	63.2	63.2	63.2	96	62.0	0	0	---	0.00	30.002 
07:05	63.7	63.7	63.7	96	62.5	0	0	---	0.00	30.005 
07:10	64.2	64.2	64.2	96	63.0	0	0	---	0.00	30.004 
07:15	64.7	64.7	64.7	96	63.5	0	0	---	0.00	30.003 
07:20	65.2	65.2	65.2	95	63.7	0	0	---	0.00	30.004 
07:25	66.0	66.0	66.0	95	64.5	0	0	---	0.00	30.007 
07:30	66.8	66.8	66.8	94	65.0	0	0	---	0.00	30.007 
07:35	67.6	67.6	67.6	93	65.5	0	0	---	0.00	30.007 
07:40	68.3	68.3	68.3	90	65.2	0	0	---	0.00	30.009 
07:45	69.1	69.1	69.1	87	65.1	0	1	270	0.00	30.010 
07:50	70.1	70.1	70.1	84	65.0	0	1	270	0.00	30.010 
07:55	70.6	70.6	70.6	79	63.8	0	0	---	0.00	30.012 
08:00	71.1	71.1	71.1	75	62.8	0	1	270	0.00	30.012 
08:05	71.5	71.5	71.5	72	62.0	0	0	---	0.00	30.015 
08:10	72.0	72.0	72.0	69	61.3	0	1	270	0.00	30.015 
08:15	72.3	72.3	72.3	67	60.7	0	1	270	0.00	30.014 
08:20	72.7	72.7	72.7	68	61.5	0	1	270	0.00	30.014 
08:25	73.2	73.2	73.2	67	61.6	0	1	270	0.00	30.016 
08:30	73.7	73.7	73.7	66	61.6	0	1	270	0.00	30.015 
08:35	74.2	74.2	74.2	67	62.5	0	1	270	0.00	30.015 
08:40	74.9	74.9	74.9	64	61.9	0	1	270	0.00	30.014 
08:45	75.6	75.6	77.6	64	62.5	0	1	270	0.00	30.014 
08:50	76.1	76.1	78.0	62	62.1	0	1	270	0.00	30.014 
08:55	77.0	77.0	78.8	62	63.0	0	2	270	0.00	30.019 
09:00	77.9	77.9	79.6	60	62.9	1	3	90	0.00	30.020 
09:05	78.6	78.6	80.1	58	62.6	0	3	90	0.00	30.020 
09:10	79.6	79.6	81.1	57	63.0	0	2	90	0.00	30.020 
09:15	79.8	79.8	81.2	56	62.7	1	4	112	0.00	30.022 
09:20	79.6	79.6	81.2	58	63.5	1	5	112	0.00	30.023 
09:25	79.2	79.2	80.7	58	63.1	2	5	112	0.00	30.023 
09:30	78.8	78.8	80.3	58	62.8	2	4	112	0.00	30.023 
09:35	79.0	79.0	80.5	58	62.9	0	1	112	0.00	30.023 
09:40	79.4	79.4	80.9	57	62.8	1	3	112	0.00	30.023 
09:45	79.6	79.6	81.1	57	63.0	1	3	112	0.00	30.024 
09:50	79.8	79.8	81.5	59	64.2	0	2	112	0.00	30.025 
09:55	80.3	80.3	81.7	56	63.1	1	3	112	0.00	30.025 
10:00	80.9	80.9	82.3	55	63.2	1	4	90	0.00	30.024 
10:05	80.7	80.7	82.3	57	64.0	1	4	112	0.00	30.029 
10:10	80.7	80.7	82.3	57	64.0	1	3	112	0.00	30.031 
10:15	80.7	80.7	82.2	56	63.5	1	5	112	0.00	30.034 
10:20	80.5	80.5	81.9	56	63.3	2	5	112	0.00	30.033 
10:25	80.7	80.7	82.2	56	63.5	1	3	112	0.00	30.032 
10:30	80.7	80.7	82.2	56	63.5	2	4	112	0.00	30.034 
10:35	80.5	80.5	81.8	55	62.8	2	4	90	0.00	30.036 
10:40	80.9	80.9	82.3	55	63.2	1	3	90	0.00	30.035 
10:45	81.1	81.1	82.8	57	64.4	2	6	112	0.00	30.036 
10:50	80.5	80.5	81.9	56	63.3	3	7	90	0.00	30.036 
10:55	80.1	80.1	81.6	57	63.5	3	6	90	0.00	30.038 
11:00	79.9	79.9	81.3	56	62.8	3	6	112	0.00	30.037 
11:05	79.8	79.8	81.2	56	62.7	3	7	112	0.00	30.038 
11:10	79.8	79.8	81.2	56	62.7	3	6	112	0.00	30.039 
11:15	79.6	79.6	81.3	59	64.0	3	6	112	0.00	30.039 
11:20	79.8	79.8	81.4	58	63.7	2	6	112	0.00	30.038 
11:25	80.3	80.3	81.9	58	64.2	1	4	112	0.00	30.037 
11:30	80.9	80.9	82.7	58	64.7	2	4	112	0.00	30.036 
11:35	81.2	81.2	82.5	54	62.9	1	3	112	0.00	30.036 
11:40	81.1	81.1	82.8	57	64.4	2	6	68	0.00	30.032 
11:45	81.4	81.4	82.4	52	62.1	1	4	90	0.00	30.030 
11:50	81.6	81.6	83.1	55	63.8	2	6	90	0.00	30.029 
11:55	81.4	81.4	82.8	55	63.7	2	6	90	0.00	30.030 
12:00	82.0	82.0	83.6	55	64.2	1	4	90	0.00	30.028 
12:05	82.2	82.2	83.3	52	62.8	1	5	112	0.00	30.030 
12:10	82.6	82.6	84.1	54	64.2	1	4	112	0.00	30.028 
12:15	82.4	82.4	83.5	52	63.0	3	6	112	0.00	30.028 
12:20	82.2	82.2	83.6	54	63.9	2	5	90	0.00	30.028 
12:25	82.0	82.0	83.2	53	63.2	1	4	112	0.00	30.028 
12:30	82.4	82.4	83.2	50	61.9	1	4	112	0.00	30.030 
12:35	82.8	82.8	83.8	51	62.8	1	6	90	0.00	30.034 
12:40	83.0	83.0	83.5	48	61.3	2	5	90	0.00	30.034 
12:45	83.4	83.4	84.6	51	63.3	0	1	90	0.00	30.033 
12:50	83.6	83.6	84.6	50	63.0	2	6	90	0.00	30.031 
12:55	83.8	83.8	85.3	52	64.3	1	5	90	0.00	30.031 
13:00	83.8	83.8	85.1	51	63.7	2	4	135	0.00	30.034 
13:05	82.6	82.6	84.1	54	64.2	2	6	112	0.00	30.038 
13:10	81.6	81.6	83.2	56	64.4	2	4	112	0.00	30.038 
13:15	81.1	81.1	82.9	58	64.9	1	3	112	0.00	30.039 
13:20	80.7	80.7	82.8	61	66.0	2	9	90	0.00	30.037 
13:25	80.3	80.3	82.2	60	65.1	3	7	90	0.00	30.040 
13:30	80.1	80.1	82.0	61	65.4	3	6	90	0.00	30.041 
13:35	79.8	79.8	81.7	61	65.1	3	7	90	0.00	30.041 
13:40	79.2	79.2	81.2	64	65.9	3	6	112	0.00	30.043 
13:45	79.8	79.8	81.8	62	65.6	2	6	112	0.00	30.042 
13:50	80.7	80.7	82.5	59	65.0	3	6	112	0.00	30.042 
13:55	81.1	81.1	82.9	58	64.9	2	6	90	0.00	30.042 
14:00	81.2	81.2	83.2	59	65.5	3	6	90	0.00	30.041 
14:05	81.4	81.4	83.6	60	66.2	2	5	90	0.00	30.041 
14:10	81.4	81.4	83.4	59	65.7	2	6	112	0.00	30.042 
14:15	81.4	81.4	83.3	58	65.2	3	7	90	0.00	30.042 
14:20	80.9	80.9	82.8	59	65.2	4	10	90	0.00	30.042 
14:25	80.9	80.9	82.8	59	65.2	2	6	90	0.00	30.042 
14:30	81.2	81.2	82.9	57	64.5	2	7	112	0.00	30.042 
14:35	81.1	81.1	82.9	58	64.9	3	10	112	0.00	30.042 
14:40	81.1	81.1	83.0	59	65.4	2	9	90	0.00	30.041 
14:45	81.2	81.2	83.0	58	65.0	2	6	90	0.00	30.040 
14:50	81.4	81.4	83.1	57	64.7	3	7	112	0.00	30.041 
14:55	81.4	81.4	83.1	57	64.7	2	6	90	0.00	30.039 
15:00	81.2	81.2	82.7	56	64.0	4	11	90	0.00	30.040 
15:05	81.4	81.4	83.4	59	65.7	1	5	112	0.00	30.041 
15:10	81.6	81.6	83.1	55	63.8	2	6	90	0.00	30.040 
15:15	81.8	81.8	83.5	56	64.5	1	5	112	0.00	30.037 
15:20	82.0	82.0	83.9	57	65.2	2	6	112	0.00	30.035 
15:25	81.4	81.4	83.0	56	64.2	3	7	90	0.00	30.032 
15:30	81.1	81.1	82.6	56	63.9	2	6	90	0.00	30.033 
15:35	81.4	81.4	83.0	56	64.2	1	4	112	0.00	30.033 
15:40	81.4	81.4	82.8	55	63.7	3	5	112	0.00	30.032 
15:45	81.2	81.2	82.7	56	64.0	3	8	90	0.00	30.032 
15:50	81.1	81.1	82.6	56	63.9	3	6	90	0.00	30.032 
15:55	80.9	80.9	82.4	56	63.7	3	6	90	0.00	30.033 
16:00	80.7	80.7	82.3	57	64.0	3	10	112	0.00	30.034 
16:05	80.3	80.3	81.7	56	63.1	4	9	90	0.00	30.034 
16:10	80.1	80.1	81.5	56	63.0	4	9	90	0.00	30.035 
16:15	79.9	79.9	81.4	57	63.3	4	10	90	0.00	30.032 
16:20	79.9	79.9	81.5	58	63.8	2	5	90	0.00	30.032 
16:25	80.1	80.1	81.6	57	63.5	3	6	90	0.00	30.030 
16:30	80.1	80.1	81.7	58	64.0	2	6	112	0.00	30.031 
16:35	79.9	79.9	81.4	57	63.3	3	9	90	0.00	30.031 
16:40	79.6	79.6	81.2	58	63.5	3	7	90	0.00	30.031 
16:45	79.2	79.2	80.7	58	63.1	4	7	90	0.00	30.033 
16:50	79.0	79.0	80.7	60	63.9	3	9	90	0.00	30.033 
16:55	78.8	78.8	80.4	59	63.2	2	7	112	0.00	30.033 
17:00	78.6	78.6	80.2	59	63.1	4	11	112	0.00	30.033 
17:05	78.5	78.5	80.2	60	63.4	2	6	112	0.00	30.034 
17:10	78.5	78.5	80.2	60	63.4	2	5	112	0.00	30.034 
17:15	78.3	78.3	80.0	60	63.2	3	9	90	0.00	30.033 
17:20	78.1	78.1	79.8	60	63.1	2	6	90	0.00	30.032 
17:25	78.1	78.1	79.8	60	63.1	2	7	90	0.00	30.032 
17:30	77.9	77.9	79.6	61	63.3	3	5	90	0.00	30.032 
17:35	77.6	77.6	79.4	62	63.5	3	6	112	0.00	30.033 
17:40	77.4	77.4	79.2	62	63.3	3	7	112	0.00	30.036 
17:45	77.2	77.2	79.0	62	63.2	1	4	90	0.00	30.036 
17:50	77.0	77.0	78.8	61	62.5	4	7	112	0.00	30.038 
17:55	76.7	76.7	78.5	62	62.7	2	6	112	0.00	30.039 
18:00	76.5	76.5	78.4	62	62.5	3	6	90	0.00	30.038 
18:05	76.5	76.5	78.3	63	62.9	1	5	112	0.00	30.036 
18:10	76.3	76.3	78.2	63	62.8	2	5	90	0.00	30.038 
18:15	76.0	76.0	77.9	64	62.9	2	5	112	0.00	30.038 
18:20	75.8	75.8	77.7	64	62.7	2	6	112	0.00	30.037 
18:25	75.4	75.4	77.4	65	62.8	2	5	112	0.00	30.038 
18:30	75.3	75.3	77.3	65	62.7	2	4	90	0.00	30.041 
18:35	75.1	75.1	77.1	65	62.5	2	7	112	0.00	30.041 
18:40	74.7	74.7	74.7	65	62.1	4	7	90	0.00	30.044 
18:45	74.6	74.6	74.6	65	62.0	3	7	90	0.00	30.047 
18:50	74.4	74.4	74.4	66	62.3	2	6	90	0.00	30.049 
18:55	74.2	74.2	74.2	66	62.1	1	5	90	0.00	30.049 
19:00	74.0	74.0	74.0	66	61.9	2	7	112	0.00	30.049 
19:05	73.9	73.9	73.9	67	62.2	1	4	112	0.00	30.043 
19:10	73.7	73.7	73.7	67	62.0	1	6	90	0.00	30.044 
19:15	73.3	73.3	73.3	67	61.7	2	5	112	0.00	30.044 
19:20	73.2	73.2	73.2	68	62.0	1	2	112	0.00	30.045 
19:25	73.0	73.0	73.0	68	61.8	1	4	90	0.00	30.044 
19:30	72.7	72.7	72.7	68	61.5	2	6	90	0.00	30.042 
19:35	72.5	72.5	72.5	69	61.7	1	4	90	0.00	30.044 
19:40	72.1	72.1	72.1	69	61.4	2	7	90	0.00	30.045 
19:45	71.8	71.8	71.8	70	61.5	2	5	90	0.00	30.046 
19:50	71.6	71.6	71.6	71	61.7	3	6	90	0.00	30.047 
19:55	71.3	71.3	71.3	71	61.4	1	3	112	0.00	30.048 
20:00	71.1	71.1	71.1	72	61.6	1	4	90	0.00	30.049 
20:05	70.8	70.8	70.8	72	61.3	3	9	112	0.00	30.044 
20:10	70.6	70.6	70.6	72	61.1	1	3	112	0.00	30.048 
20:15	70.4	70.4	70.4	73	61.3	2	5	112	0.00	30.052 
20:20	70.1	70.1	70.1	73	61.0	2	4	112	0.00	30.054 
20:25	69.9	69.9	69.9	73	60.8	1	4	112	0.00	30.055 
20:30	69.6	69.6	69.6	73	60.6	1	4	90	0.00	30.057 
20:35	69.4	69.4	69.4	74	60.7	1	4	112	0.00	30.057 
20:40	69.3	69.3	69.3	74	60.6	2	4	90	0.00	30.059 
20:45	69.1	69.1	69.1	75	60.8	1	3	90	0.00	30.059 
20:50	68.8	68.8	68.8	76	60.9	1	3	90	0.00	30.059 
20:55	68.6	68.6	68.6	76	60.7	1	2	90	0.00	30.059 
21:00	68.4	68.4	68.4	77	60.9	0	2	90	0.00	30.059 
21:05	68.1	68.1	68.1	77	60.6	1	2	90	0.00	30.059 
21:10	67.9	67.9	67.9	78	60.8	1	3	90	0.00	30.060 
21:15	67.8	67.8	67.8	78	60.7	0	2	90	0.00	30.060 
21:20	67.6	67.6	67.6	78	60.5	1	4	90	0.00	30.062 
21:25	67.4	67.4	67.4	78	60.3	1	3	112	0.00	30.066 
21:30	67.3	67.3	67.3	78	60.2	1	4	90	0.00	30.064 
21:35	67.1	67.1	67.1	78	60.0	1	3	90	0.00	30.069 
21:40	67.1	67.1	67.1	78	60.0	0	2	90	0.00	30.071 
21:45	66.9	66.9	66.9	79	60.2	0	1	90	0.00	30.069 
21:50	66.8	66.8	66.8	79	60.1	0	1	90	0.00	30.071 
21:55	66.6	66.6	66.6	79	59.9	0	2	90	0.00	30.070 
22:00	66.4	66.4	66.4	80	60.0	1	2	90	0.00	30.071 
22:05	66.3	66.3	66.3	79	59.6	1	5	90	0.00	30.072 
22:10	66.1	66.1	66.1	79	59.4	1	3	90	0.00	30.074 
22:15	66.1	66.1	66.1	78	59.0	1	3	90	0.00	30.074 
22:20	66.0	66.0	66.0	78	58.9	1	3	90	0.00	30.075 
22:25	65.8	65.8	65.8	77	58.4	1	3	90	0.00	30.076 
22:30	65.6	65.6	65.6	77	58.2	1	3	90	0.00	30.076 
22:35	65.6	65.6	65.6	77	58.2	1	3	90	0.00	30.076 
22:40	65.5	65.5	65.5	77	58.1	1	4	90	0.00	30.077 
22:45	65.3	65.3	65.3	77	57.9	1	2	90	0.00	30.081 
22:50	65.2	65.2	65.2	77	57.8	0	2	90	0.00	30.084 
22:55	65.0	65.0	65.0	77	57.6	0	2	90	0.00	30.089 
23:00	64.8	64.8	64.8	77	57.4	0	3	90	0.00	30.091 
23:05	64.8	64.8	64.8	77	57.4	1	2	90	0.00	30.090 
23:10	64.7	64.7	64.7	77	57.3	0	2	90	0.00	30.090 
23:15	64.5	64.5	64.5	77	57.1	0	2	90	0.00	30.089 
23:20	64.3	64.3	64.3	77	56.9	1	2	90	0.00	30.089 
23:25	64.3	64.3	64.3	78	57.3	1	4	90	0.00	30.089 
23:30	64.2	64.2	64.2	78	57.2	1	2	68	0.00	30.091 
23:35	64.0	64.0	64.0	78	57.0	1	3	68	0.00	30.092 
23:40	64.0	64.0	64.0	78	57.0	1	3	112	0.00	30.095 
23:45	63.9	63.9	63.9	79	57.3	1	3	68	0.00	30.094 
23:50	63.9	63.9	63.9	79	57.3	1	4	68	0.00	30.092 
23:55	63.7	63.7	63.7	79	57.1	1	4	112	0.00	30.093 

CoCoRaHS
IN-AL-39
A2 Web Hosting
Creative Commons License
GoDaddy
Look for:

loaded 2017-12-12 07:33:37 • last modified 2010-11-18 10:43:29
Privacy PolicyDisclaimer
• wx.awcolley.com is powered by PmWiki v.2002016 •
• all content (unless otherwise noted) © 2017 A W Colley